Terminal Aerodrome Forecast
Issued by NWS Newport/Morehead City, NC

Home | Current Version | Previous Version | Text Only | Print | Product List | Glossary Off
Versions: 1 2 3 4 5 6 7 8 9 10 11 12 13 14 15

000
FTUS42 KMHX 030205 AAA
TAFEWN
TAF AMD
KEWN 030205Z 0302/0324 21011G19KT P6SM VCSH BKN050
     FM030600 22008KT P6SM BKN080
     FM031600 23012G20KT P6SM VCTS BKN035CB=

USA.gov is the U.S. government's official web portal to all federal, state and local government web resources and services.